createdAt,value
2017-11-13T00:00:39.493Z,99.00
2017-11-13T00:03:07.021Z,98.90
2017-11-13T00:05:34.546Z,98.90
2017-11-13T00:08:02.082Z,99.00
2017-11-13T00:10:29.625Z,98.80
2017-11-13T00:12:57.181Z,98.30
2017-11-13T00:15:24.706Z,98.70
2017-11-13T00:17:52.652Z,98.80
2017-11-13T00:20:20.194Z,98.80
2017-11-13T00:22:47.765Z,98.70
2017-11-13T00:25:15.297Z,98.30
2017-11-13T00:27:42.819Z,98.70
2017-11-13T00:30:10.368Z,98.60
2017-11-13T00:32:37.894Z,98.70
2017-11-13T00:35:05.451Z,98.80
2017-11-13T00:37:32.985Z,98.90
2017-11-13T00:40:00.560Z,98.70
2017-11-13T00:42:28.139Z,98.60
2017-11-13T00:44:55.666Z,99.00
2017-11-13T00:47:23.602Z,99.00
2017-11-13T00:49:51.124Z,99.00
2017-11-13T00:52:18.675Z,98.90
2017-11-13T00:54:46.189Z,98.50
2017-11-13T00:57:13.760Z,98.70
2017-11-13T00:59:41.291Z,98.60
2017-11-13T01:02:08.821Z,98.60
2017-11-13T01:04:36.353Z,98.30
2017-11-13T01:07:04.265Z,98.70
2017-11-13T01:09:32.197Z,98.70
2017-11-13T01:11:59.712Z,98.70
2017-11-13T01:14:27.280Z,98.20
2017-11-13T01:16:55.228Z,98.40
2017-11-13T01:19:22.765Z,98.30
2017-11-13T01:21:50.327Z,98.50
2017-11-13T01:24:17.841Z,98.60
2017-11-13T01:26:45.392Z,98.60
2017-11-13T01:29:12.916Z,98.70
2017-11-13T01:31:40.486Z,98.80
2017-11-13T01:34:07.998Z,98.50
2017-11-13T01:36:35.511Z,98.70
2017-11-13T01:39:03.454Z,98.70
2017-11-13T01:41:30.979Z,98.70
2017-11-13T01:43:59.781Z,98.50
2017-11-13T01:46:27.721Z,98.70
2017-11-13T01:48:55.295Z,98.70
2017-11-13T01:51:22.813Z,98.70
2017-11-13T01:53:50.327Z,98.50
2017-11-13T01:56:17.884Z,98.50
2017-11-13T01:58:45.420Z,98.20
2017-11-13T02:01:12.979Z,98.40
2017-11-13T02:03:40.511Z,98.20
2017-11-13T02:06:08.079Z,98.20
2017-11-13T02:08:36.007Z,98.50
2017-11-13T02:11:03.625Z,98.50
2017-11-13T02:13:31.148Z,98.40
2017-11-13T02:15:59.079Z,98.60
2017-11-13T02:18:26.629Z,98.60
2017-11-13T02:20:54.162Z,98.40
2017-11-13T02:23:21.693Z,98.20
2017-11-13T02:25:49.209Z,98.40
2017-11-13T02:28:16.749Z,98.30
2017-11-13T02:30:44.264Z,98.50
2017-11-13T02:33:11.825Z,98.20
2017-11-13T02:35:39.355Z,98.10
2017-11-13T02:38:06.898Z,98.30
2017-11-13T02:40:34.826Z,98.50
2017-11-13T02:43:02.351Z,98.50
2017-11-13T02:45:29.904Z,98.40
2017-11-13T02:47:57.475Z,98.60
2017-11-13T02:50:25.035Z,98.40
2017-11-13T02:52:52.550Z,98.60
2017-11-13T02:55:20.514Z,98.70
2017-11-13T02:57:48.060Z,98.70
2017-11-13T03:00:15.592Z,98.80
2017-11-13T03:02:43.124Z,98.70
2017-11-13T03:05:10.641Z,98.40
2017-11-13T03:07:38.189Z,98.30
2017-11-13T03:10:05.711Z,98.30
2017-11-13T03:12:33.244Z,98.40
2017-11-13T03:15:00.759Z,98.30
2017-11-13T03:17:28.349Z,98.50
2017-11-13T03:19:55.864Z,98.60
2017-11-13T03:22:23.781Z,98.60
2017-11-13T03:24:51.330Z,98.60
2017-11-13T03:27:18.863Z,98.70
2017-11-13T03:29:46.403Z,98.60
2017-11-13T03:32:13.937Z,98.60
2017-11-13T03:34:41.890Z,99.00
2017-11-13T03:37:09.421Z,99.00
2017-11-13T03:39:37.352Z,98.80
2017-11-13T03:42:04.884Z,99.00
2017-11-13T03:44:32.417Z,98.60
2017-11-13T03:46:59.958Z,98.70
2017-11-13T03:49:27.747Z,98.50
2017-11-13T03:51:55.285Z,98.50
2017-11-13T03:54:22.820Z,98.50
2017-11-13T03:56:50.350Z,98.60
2017-11-13T03:59:17.869Z,98.40
2017-11-13T04:01:45.395Z,98.70
2017-11-13T04:04:12.941Z,98.70
2017-11-13T04:06:40.455Z,98.40
2017-11-13T04:09:07.982Z,98.30
2017-11-13T04:11:35.907Z,98.40
2017-11-13T04:14:03.417Z,98.40
2017-11-13T04:16:30.976Z,98.40
2017-11-13T04:18:58.855Z,98.40
2017-11-13T04:21:26.397Z,98.60
2017-11-13T04:23:53.934Z,98.40
2017-11-13T04:26:21.479Z,98.60
2017-11-13T04:28:49.428Z,98.70
2017-11-13T04:31:16.947Z,98.60
2017-11-13T04:33:44.495Z,98.50
2017-11-13T04:36:12.013Z,98.80
2017-11-13T04:38:39.540Z,98.80
2017-11-13T04:41:07.085Z,98.80
2017-11-13T04:43:34.606Z,98.90
2017-11-13T04:46:02.160Z,98.90
2017-11-13T04:48:29.692Z,98.90
2017-11-13T04:50:57.626Z,99.10
2017-11-13T04:53:25.158Z,99.10
2017-11-13T04:55:52.702Z,99.20
2017-11-13T04:58:20.255Z,99.10
2017-11-13T05:00:47.775Z,99.20
2017-11-13T05:03:15.288Z,99.30
2017-11-13T05:05:42.838Z,99.00
2017-11-13T05:08:10.361Z,99.20
2017-11-13T05:10:37.935Z,99.30
2017-11-13T05:13:05.460Z,99.40
2017-11-13T05:15:33.408Z,99.10
2017-11-13T05:18:00.955Z,99.10
2017-11-13T05:20:28.887Z,99.40
2017-11-13T05:22:56.422Z,99.40
2017-11-13T05:25:23.961Z,99.30
2017-11-13T05:27:51.559Z,99.40
2017-11-13T05:30:19.088Z,99.30
2017-11-13T05:32:46.611Z,99.30
2017-11-13T05:35:14.143Z,99.30
2017-11-13T05:37:41.671Z,99.30
2017-11-13T05:40:09.230Z,99.30
2017-11-13T05:42:37.161Z,99.30
2017-11-13T05:45:04.730Z,99.30
2017-11-13T05:47:32.271Z,99.40
2017-11-13T05:49:59.792Z,99.30
2017-11-13T05:52:27.751Z,99.10
2017-11-13T05:54:55.293Z,99.10
2017-11-13T05:57:22.837Z,99.30
2017-11-13T05:59:50.358Z,99.20
2017-11-13T06:02:17.876Z,99.30
2017-11-13T06:04:45.432Z,99.30
2017-11-13T06:07:12.963Z,99.30
2017-11-13T06:09:40.517Z,99.20
2017-11-13T06:12:08.065Z,99.30
2017-11-13T06:14:35.624Z,99.20
2017-11-13T06:17:03.163Z,99.30
2017-11-13T06:19:30.712Z,99.40
2017-11-13T06:21:58.229Z,99.30
2017-11-13T06:24:25.772Z,99.30
2017-11-13T06:26:53.288Z,99.30
2017-11-13T06:29:21.218Z,99.20
2017-11-13T06:31:48.743Z,99.20
2017-11-13T06:34:16.292Z,99.10
2017-11-13T06:36:43.816Z,99.00
2017-11-13T06:39:11.363Z,99.20
2017-11-13T06:41:38.893Z,99.10
2017-11-13T06:44:06.835Z,99.00
2017-11-13T06:46:34.372Z,99.00
2017-11-13T06:49:02.310Z,99.00
2017-11-13T06:51:29.821Z,99.00
2017-11-13T06:53:57.350Z,98.90
2017-11-13T06:56:25.279Z,98.80
2017-11-13T06:58:52.827Z,98.80
2017-11-13T07:01:20.752Z,99.10
2017-11-13T07:03:48.280Z,99.10
2017-11-13T07:06:15.804Z,98.90
2017-11-13T07:08:43.732Z,99.00
2017-11-13T07:11:11.267Z,98.90
2017-11-13T07:13:39.199Z,99.10
2017-11-13T07:16:06.729Z,99.00
2017-11-13T07:18:34.266Z,99.10
2017-11-13T07:21:01.824Z,99.00
2017-11-13T07:23:29.363Z,99.20
2017-11-13T07:25:56.931Z,98.70
2017-11-13T07:28:24.444Z,98.90
2017-11-13T07:30:52.850Z,99.00
2017-11-13T07:33:20.391Z,99.10
2017-11-13T07:35:47.949Z,99.00
2017-11-13T07:38:15.875Z,99.00
2017-11-13T07:40:43.406Z,99.00
2017-11-13T07:43:10.945Z,99.10
2017-11-13T07:45:38.478Z,98.80
2017-11-13T07:48:05.995Z,98.80
2017-11-13T07:50:33.946Z,99.00
2017-11-13T07:53:01.470Z,99.00
2017-11-13T07:55:29.828Z,99.00
2017-11-13T07:57:57.345Z,99.00
2017-11-13T08:00:24.888Z,99.00
2017-11-13T08:02:52.410Z,99.10
2017-11-13T08:05:19.964Z,99.00
2017-11-13T08:07:47.500Z,99.00
2017-11-13T08:10:15.033Z,98.90
2017-11-13T08:12:42.543Z,98.70
2017-11-13T08:15:10.078Z,98.70
2017-11-13T08:17:37.589Z,98.70
2017-11-13T08:20:05.128Z,99.20
2017-11-13T08:22:33.064Z,98.30
2017-11-13T08:25:00.626Z,98.30
2017-11-13T08:27:28.170Z,98.30
2017-11-13T08:29:55.709Z,98.00
2017-11-13T08:32:23.221Z,98.20
2017-11-13T08:34:50.772Z,98.00
2017-11-13T08:37:18.280Z,98.00
2017-11-13T08:39:45.793Z,98.00
2017-11-13T08:42:13.341Z,97.80
2017-11-13T08:44:40.886Z,97.70
2017-11-13T08:47:08.433Z,97.70
2017-11-13T08:49:35.949Z,97.90
2017-11-13T08:52:03.502Z,98.00
2017-11-13T08:54:31.431Z,97.40
2017-11-13T08:56:59.009Z,97.40
2017-11-13T08:59:26.529Z,97.30
2017-11-13T09:01:54.076Z,97.20
2017-11-13T09:04:21.587Z,96.90
2017-11-13T09:06:49.129Z,96.60
2017-11-13T09:09:16.650Z,96.70
2017-11-13T09:11:44.608Z,97.20
2017-11-13T09:14:12.130Z,97.20
2017-11-13T09:16:39.661Z,96.90
2017-11-13T09:19:07.584Z,96.90
2017-11-13T09:21:35.121Z,96.90
2017-11-13T09:24:02.637Z,97.40
2017-11-13T09:26:30.569Z,96.90
2017-11-13T09:28:58.204Z,97.00
2017-11-13T09:31:26.229Z,96.60
2017-11-13T09:33:53.764Z,96.60
2017-11-13T09:36:21.298Z,95.90
2017-11-13T09:38:48.843Z,96.10
2017-11-13T09:41:16.809Z,96.30
2017-11-13T09:43:44.351Z,96.30
2017-11-13T09:46:12.285Z,95.80
2017-11-13T09:48:39.810Z,95.80
2017-11-13T09:51:07.353Z,95.70
2017-11-13T09:53:34.889Z,95.50
2017-11-13T09:56:02.429Z,95.60
2017-11-13T09:58:29.941Z,95.20
2017-11-13T10:00:57.507Z,94.80
2017-11-13T10:03:25.046Z,95.90
2017-11-13T10:05:52.590Z,92.90
2017-11-13T10:08:20.121Z,92.80
2017-11-13T10:10:47.648Z,93.60
2017-11-13T10:13:15.204Z,93.40
2017-11-13T10:15:43.127Z,92.70
2017-11-13T10:18:10.672Z,92.70
2017-11-13T10:20:38.188Z,91.90
2017-11-13T10:23:05.735Z,92.10
2017-11-13T10:25:33.266Z,91.10
2017-11-13T10:28:00.818Z,91.90
2017-11-13T10:30:28.746Z,91.10
2017-11-13T10:32:56.293Z,91.10
2017-11-13T10:35:24.228Z,90.40
2017-11-13T10:37:51.780Z,90.40
2017-11-13T10:40:19.709Z,90.50
2017-11-13T10:42:47.250Z,90.50
2017-11-13T10:45:14.761Z,90.00
2017-11-13T10:47:42.310Z,90.70
2017-11-13T10:50:09.852Z,89.60
2017-11-13T10:52:37.386Z,89.80
2017-11-13T10:55:04.910Z,88.00
2017-11-13T10:57:32.455Z,88.10
2017-11-13T10:59:59.973Z,87.80
2017-11-13T11:02:27.519Z,87.70
2017-11-13T11:04:55.047Z,86.30
2017-11-13T11:07:22.597Z,88.30
2017-11-13T11:09:50.116Z,88.00
2017-11-13T11:12:21.210Z,86.10
2017-11-13T11:14:48.742Z,87.20
2017-11-13T11:17:27.523Z,87.10
2017-11-13T11:20:01.657Z,87.10
2017-11-13T11:22:29.669Z,85.70
2017-11-13T11:24:57.188Z,86.40
2017-11-13T11:27:29.333Z,85.60
2017-11-13T11:29:57.876Z,86.10
2017-11-13T11:32:26.015Z,86.10
2017-11-13T11:38:00.188Z,84.90
2017-11-13T11:40:31.152Z,84.90
2017-11-13T11:42:58.737Z,85.00
2017-11-13T11:48:43.201Z,83.60
2017-11-13T11:51:10.713Z,83.60
2017-11-13T11:53:42.085Z,83.60
2017-11-13T11:59:07.656Z,85.10
2017-11-13T12:01:35.577Z,84.70
2017-11-13T12:04:03.146Z,84.70
2017-11-13T12:06:30.685Z,84.80
2017-11-13T12:08:58.241Z,84.90
2017-11-13T12:11:25.764Z,83.60
2017-11-13T12:13:53.293Z,83.80
2017-11-13T12:16:20.829Z,84.70
2017-11-13T12:18:48.376Z,84.30
2017-11-13T12:21:15.899Z,84.30
2017-11-13T12:23:43.453Z,83.90
2017-11-13T12:26:10.961Z,83.00
2017-11-13T12:28:38.488Z,83.70
2017-11-13T12:31:06.397Z,82.30
2017-11-13T12:33:33.936Z,82.30
2017-11-13T12:36:01.465Z,83.10
2017-11-13T12:38:29.003Z,83.10
2017-11-13T12:40:56.526Z,84.30
2017-11-13T12:43:24.072Z,84.60
2017-11-13T12:45:51.593Z,83.40
2017-11-13T12:48:19.519Z,82.90
2017-11-13T12:50:47.071Z,82.90
2017-11-13T12:53:14.989Z,83.60
2017-11-13T12:55:42.524Z,83.60
2017-11-13T12:58:10.032Z,84.10
2017-11-13T13:00:37.953Z,86.20
2017-11-13T13:03:05.487Z,86.20
2017-11-13T13:05:33.057Z,87.10
2017-11-13T13:08:00.580Z,86.60
2017-11-13T13:10:28.104Z,87.10
2017-11-13T13:12:55.620Z,88.40
2017-11-13T13:15:23.187Z,88.50
2017-11-13T13:17:50.707Z,89.20
2017-11-13T13:20:18.230Z,87.30
2017-11-13T13:22:45.755Z,87.60
2017-11-13T13:25:13.830Z,87.20
2017-11-13T13:27:41.356Z,88.20
2017-11-13T13:30:09.294Z,88.40
2017-11-13T13:32:36.809Z,88.40
2017-11-13T13:35:04.349Z,88.00
2017-11-13T13:37:32.270Z,88.80
2017-11-13T13:39:59.798Z,88.80
2017-11-13T13:42:27.308Z,89.80
2017-11-13T13:44:54.835Z,89.80
2017-11-13T13:47:22.751Z,90.00
2017-11-13T13:49:50.299Z,90.00
2017-11-13T13:52:17.837Z,90.40
2017-11-13T13:54:45.758Z,91.30
2017-11-13T13:57:13.279Z,91.30
2017-11-13T13:59:40.809Z,91.60
2017-11-13T14:02:08.327Z,92.20
2017-11-13T14:04:35.875Z,92.40
2017-11-13T14:07:03.385Z,92.50
2017-11-13T14:09:31.042Z,92.90
2017-11-13T14:11:58.568Z,92.40
2017-11-13T14:14:26.107Z,92.30
2017-11-13T14:16:53.642Z,91.20
2017-11-13T14:19:21.567Z,90.70
2017-11-13T14:21:49.116Z,90.70
2017-11-13T14:24:16.626Z,91.80
2017-11-13T14:26:44.151Z,92.10
2017-11-13T14:29:11.666Z,90.00
2017-11-13T14:31:39.232Z,90.40
2017-11-13T14:34:06.745Z,90.80
2017-11-13T14:36:34.691Z,91.90
2017-11-13T14:39:02.221Z,91.90
2017-11-13T14:41:29.767Z,92.00
2017-11-13T14:43:57.290Z,92.30
2017-11-13T14:46:25.224Z,91.50
2017-11-13T14:48:52.755Z,91.50
2017-11-13T14:51:20.282Z,92.40
2017-11-13T14:53:47.856Z,93.00
2017-11-13T14:56:15.403Z,92.70
2017-11-13T14:58:43.744Z,91.90
2017-11-13T15:01:11.268Z,90.90
2017-11-13T15:03:38.802Z,90.50
2017-11-13T15:06:06.347Z,91.20
2017-11-13T15:08:33.869Z,90.90
2017-11-13T15:11:01.388Z,91.40
2017-11-13T15:13:28.898Z,92.10
2017-11-13T15:15:56.422Z,92.40
2017-11-13T15:18:23.951Z,92.20
2017-11-13T15:20:52.307Z,92.10
2017-11-13T15:23:19.851Z,92.20
2017-11-13T15:25:47.381Z,92.70
2017-11-13T15:28:14.903Z,92.20
2017-11-13T15:30:42.437Z,91.90
2017-11-13T15:33:09.941Z,92.10
2017-11-13T15:35:37.454Z,92.40
2017-11-13T15:38:04.991Z,92.50
2017-11-13T15:40:32.496Z,92.40
2017-11-13T15:43:00.020Z,92.50
2017-11-13T15:45:27.930Z,93.20
2017-11-13T15:47:55.467Z,93.10
2017-11-13T15:50:22.995Z,93.30
2017-11-13T15:52:50.542Z,93.00
2017-11-13T15:55:18.067Z,93.10
2017-11-13T15:57:45.609Z,93.00
2017-11-13T16:00:13.973Z,92.80
2017-11-13T16:02:41.635Z,92.80
2017-11-13T16:05:09.163Z,93.20
2017-11-13T16:07:36.696Z,93.50
2017-11-13T16:10:04.615Z,93.50
2017-11-13T16:12:32.163Z,93.50
2017-11-13T16:15:00.094Z,93.90
2017-11-13T16:17:27.646Z,93.90
2017-11-13T16:19:55.550Z,94.20
2017-11-13T16:22:23.491Z,93.70
2017-11-13T16:24:51.018Z,93.70
2017-11-13T16:27:18.949Z,93.90
2017-11-13T16:29:46.460Z,93.90
2017-11-13T16:32:13.998Z,93.90
2017-11-13T16:34:41.517Z,94.00
2017-11-13T16:37:09.071Z,94.00
2017-11-13T16:39:36.592Z,94.00
2017-11-13T16:42:04.144Z,94.10
2017-11-13T16:44:31.662Z,94.10
2017-11-13T16:46:59.176Z,93.90
2017-11-13T16:49:27.076Z,93.90
2017-11-13T16:51:54.608Z,94.00
2017-11-13T16:54:22.120Z,93.50
2017-11-13T16:56:49.646Z,93.70
2017-11-13T16:59:17.172Z,93.80
2017-11-13T17:01:44.686Z,94.10
2017-11-13T17:04:12.213Z,93.80
2017-11-13T17:06:39.731Z,94.20
2017-11-13T17:09:07.274Z,94.20
2017-11-13T17:11:34.807Z,94.40
2017-11-13T17:14:02.343Z,94.50
2017-11-13T17:16:29.878Z,94.60
2017-11-13T17:18:57.403Z,94.70
2017-11-13T17:21:24.920Z,94.60
2017-11-13T17:23:52.441Z,94.40
2017-11-13T17:26:19.965Z,94.60
2017-11-13T17:28:47.518Z,94.40
2017-11-13T17:31:15.432Z,93.90
2017-11-13T17:33:42.979Z,93.90
2017-11-13T17:36:10.520Z,93.40
2017-11-13T17:38:38.072Z,93.40
2017-11-13T17:41:06.005Z,93.00
2017-11-13T17:43:33.552Z,93.00
2017-11-13T17:46:01.089Z,93.10
2017-11-13T17:48:28.710Z,93.50
2017-11-13T17:50:56.215Z,93.80
2017-11-13T17:53:23.740Z,92.80
2017-11-13T17:55:51.254Z,93.00
2017-11-13T17:58:18.800Z,92.70
2017-11-13T18:00:46.307Z,92.50
2017-11-13T18:03:13.847Z,92.40
2017-11-13T18:05:41.405Z,92.60
2017-11-13T18:08:09.324Z,92.70
2017-11-13T18:10:36.853Z,92.70
2017-11-13T18:13:04.400Z,92.20
2017-11-13T18:15:31.920Z,92.00
2017-11-13T18:17:59.472Z,92.40
2017-11-13T18:20:26.989Z,92.60
2017-11-13T18:22:54.493Z,92.50
2017-11-13T18:25:22.038Z,92.70
2017-11-13T18:27:49.564Z,92.90
2017-11-13T18:30:17.106Z,92.80
2017-11-13T18:32:44.625Z,93.00
2017-11-13T18:35:12.175Z,93.00
2017-11-13T18:37:39.684Z,92.80
2017-11-13T18:40:07.231Z,93.30
2017-11-13T18:42:34.745Z,93.00
2017-11-13T18:45:02.273Z,93.20
2017-11-13T18:47:29.774Z,92.90
2017-11-13T18:49:57.292Z,93.00
2017-11-13T18:52:24.813Z,93.10
2017-11-13T18:54:52.359Z,93.20
2017-11-13T18:57:19.865Z,93.30
2017-11-13T18:59:47.395Z,93.20
2017-11-13T19:02:15.328Z,93.30
2017-11-13T19:04:42.855Z,93.30
2017-11-13T19:07:10.369Z,93.20
2017-11-13T19:09:37.889Z,93.10
2017-11-13T19:12:05.404Z,93.20
2017-11-13T19:14:32.957Z,92.90
2017-11-13T19:17:00.472Z,92.80
2017-11-13T19:19:28.018Z,93.40
2017-11-13T19:21:55.526Z,93.60
2017-11-13T19:24:23.072Z,93.80
2017-11-13T19:26:50.590Z,93.70
2017-11-13T19:29:18.525Z,94.20
2017-11-13T19:31:46.051Z,94.20
2017-11-13T19:34:13.591Z,94.60
2017-11-13T19:36:41.149Z,94.60
2017-11-13T19:39:08.706Z,94.90
2017-11-13T19:41:36.627Z,95.40
2017-11-13T19:44:04.201Z,95.40
2017-11-13T19:46:31.702Z,95.30
2017-11-13T19:48:59.248Z,95.30
2017-11-13T19:51:26.794Z,95.10
2017-11-13T19:53:54.306Z,94.80
2017-11-13T19:56:21.857Z,94.70
2017-11-13T19:58:49.383Z,94.80
2017-11-13T20:01:17.662Z,94.80
2017-11-13T20:03:45.177Z,95.40
2017-11-13T20:06:12.737Z,95.40
2017-11-13T20:08:40.261Z,95.50
2017-11-13T20:11:07.784Z,95.40
2017-11-13T20:13:35.285Z,95.50
2017-11-13T20:16:02.817Z,95.40
2017-11-13T20:18:30.323Z,94.90
2017-11-13T20:20:57.844Z,94.70
2017-11-13T20:23:25.378Z,94.40
2017-11-13T20:25:52.917Z,94.30
2017-11-13T20:28:20.821Z,94.10
2017-11-13T20:30:48.341Z,94.10
2017-11-13T20:33:15.849Z,94.00
2017-11-13T20:35:43.616Z,94.20
2017-11-13T20:38:11.198Z,94.20
2017-11-13T20:40:38.733Z,94.20
2017-11-13T20:43:06.253Z,93.80
2017-11-13T20:45:33.827Z,93.80
2017-11-13T20:48:01.424Z,94.10
2017-11-13T20:50:28.965Z,94.20
2017-11-13T20:52:56.488Z,93.90
2017-11-13T20:55:24.016Z,94.10
2017-11-13T20:57:51.938Z,94.50
2017-11-13T21:00:19.501Z,94.50
2017-11-13T21:02:47.007Z,94.50
2017-11-13T21:05:14.934Z,94.70
2017-11-13T21:07:42.490Z,94.70
2017-11-13T21:10:10.005Z,94.50
2017-11-13T21:12:37.940Z,94.10
2017-11-13T21:15:05.467Z,94.10
2017-11-13T21:17:33.000Z,93.80
2017-11-13T21:20:00.516Z,94.40
2017-11-13T21:22:28.060Z,94.40
2017-11-13T21:24:55.582Z,94.30
2017-11-13T21:27:23.138Z,94.40
2017-11-13T21:29:50.670Z,94.60
2017-11-13T21:32:18.176Z,94.90
2017-11-13T21:34:45.722Z,95.00
2017-11-13T21:37:13.640Z,94.90
2017-11-13T21:39:41.188Z,94.90
2017-11-13T21:42:08.693Z,94.90
2017-11-13T21:44:36.216Z,95.20
2017-11-13T21:47:03.746Z,95.00
2017-11-13T21:49:31.372Z,95.00
2017-11-13T21:51:59.276Z,94.90
2017-11-13T21:54:26.931Z,94.90
2017-11-13T21:56:54.459Z,95.00
2017-11-13T21:59:21.983Z,95.00
2017-11-13T22:01:49.525Z,95.20
2017-11-13T22:04:17.052Z,95.30
2017-11-13T22:06:44.581Z,95.40
2017-11-13T22:09:12.132Z,95.50
2017-11-13T22:11:39.662Z,95.10
2017-11-13T22:14:07.173Z,95.20
2017-11-13T22:16:34.704Z,95.30
2017-11-13T22:19:02.229Z,95.00
2017-11-13T22:21:29.738Z,95.10
2017-11-13T22:23:57.657Z,95.30
2017-11-13T22:26:25.184Z,95.20
2017-11-13T22:28:52.753Z,95.50
2017-11-13T22:31:20.324Z,95.60
2017-11-13T22:33:47.838Z,95.30
2017-11-13T22:36:15.387Z,95.40
2017-11-13T22:38:43.724Z,95.70
2017-11-13T22:41:11.272Z,96.00
2017-11-13T22:43:38.797Z,95.90
2017-11-13T22:46:06.343Z,95.80
2017-11-13T22:48:34.268Z,96.00
2017-11-13T22:51:01.795Z,96.00
2017-11-13T22:53:29.322Z,95.90
2017-11-13T22:55:56.854Z,96.10
2017-11-13T22:58:24.382Z,96.20
2017-11-13T23:00:52.472Z,96.30
2017-11-13T23:03:20.028Z,96.10
2017-11-13T23:05:47.574Z,96.10
2017-11-13T23:08:15.125Z,96.30
2017-11-13T23:10:42.670Z,96.20
2017-11-13T23:13:10.225Z,96.00
2017-11-13T23:15:38.130Z,96.20
2017-11-13T23:18:05.644Z,96.20
2017-11-13T23:20:33.186Z,95.70
2017-11-13T23:23:00.693Z,95.80
2017-11-13T23:25:28.241Z,95.70
2017-11-13T23:27:55.759Z,95.90
2017-11-13T23:30:23.297Z,96.00
2017-11-13T23:32:50.816Z,95.80
2017-11-13T23:35:18.359Z,95.80
2017-11-13T23:37:45.889Z,95.70
2017-11-13T23:40:13.411Z,96.00
2017-11-13T23:42:40.952Z,95.80
2017-11-13T23:45:08.469Z,95.60
2017-11-13T23:47:35.991Z,95.70
2017-11-13T23:50:03.496Z,95.70
2017-11-13T23:52:31.440Z,95.50
2017-11-13T23:54:58.971Z,95.50
2017-11-13T23:57:26.497Z,95.30
2017-11-13T23:59:54.012Z,95.80
